sensor_id;sensor_type;location;lat;lon;timestamp;pressure;altitude;pressure_sealevel;temperature;humidity
57894;BME280;43710;47.460;19.034;2023-06-26T04:01:42;100413.94;;;20.57;71.31
57894;BME280;43710;47.460;19.034;2023-06-26T04:04:45;100413.94;;;20.57;71.31
57894;BME280;43710;47.460;19.034;2023-06-26T04:07:52;100424.25;;;19.99;72.24
57894;BME280;43710;47.460;19.034;2023-06-26T04:10:55;100415.22;;;19.94;72.14
57894;BME280;43710;47.460;19.034;2023-06-26T04:13:59;100419.28;;;19.88;72.69
57894;BME280;43710;47.460;19.034;2023-06-26T04:17:02;100420.53;;;19.91;72.19
57894;BME280;43710;47.460;19.034;2023-06-26T04:20:05;100420.53;;;19.91;73.28
57894;BME280;43710;47.460;19.034;2023-06-26T04:23:11;100420.31;;;19.84;72.63
57894;BME280;43710;47.460;19.034;2023-06-26T04:26:13;100417.72;;;19.87;72.71
57894;BME280;43710;47.460;19.034;2023-06-26T04:29:16;100417.78;;;20.03;71.87
57894;BME280;43710;47.460;19.034;2023-06-26T04:32:19;100423.59;;;20.02;71.70
57894;BME280;43710;47.460;19.034;2023-06-26T04:35:21;100423.34;;;20.07;72.06
57894;BME280;43710;47.460;19.034;2023-06-26T04:38:23;100417.66;;;20.12;71.93
57894;BME280;43710;47.460;19.034;2023-06-26T04:41:26;100419.13;;;20.09;75.18
57894;BME280;43710;47.460;19.034;2023-06-26T04:44:28;100423.66;;;20.17;77.49
57894;BME280;43710;47.460;19.034;2023-06-26T04:47:30;100422.59;;;20.34;73.34
57894;BME280;43710;47.460;19.034;2023-06-26T04:50:33;100430.41;;;20.36;73.18
57894;BME280;43710;47.460;19.034;2023-06-26T04:53:36;100427.00;;;20.39;73.08
57894;BME280;43710;47.460;19.034;2023-06-26T04:56:39;100430.66;;;20.43;76.49
57894;BME280;43710;47.460;19.034;2023-06-26T04:59:42;100430.28;;;20.45;72.22
57894;BME280;43710;47.460;19.034;2023-06-26T05:02:44;100429.69;;;20.63;81.29
57894;BME280;43710;47.460;19.034;2023-06-26T05:05:47;100427.84;;;20.68;73.02
57894;BME280;43710;47.460;19.034;2023-06-26T05:08:50;100420.16;;;20.85;77.29
57894;BME280;43710;47.460;19.034;2023-06-26T05:11:53;100428.97;;;20.95;74.04
57894;BME280;43710;47.460;19.034;2023-06-26T05:14:55;100424.84;;;21.01;80.66
57894;BME280;43710;47.460;19.034;2023-06-26T05:17:57;100429.87;;;21.15;72.71
57894;BME280;43710;47.460;19.034;2023-06-26T05:21:00;100422.94;;;21.33;78.05
57894;BME280;43710;47.460;19.034;2023-06-26T05:24:03;100419.09;;;21.50;70.15
57894;BME280;43710;47.460;19.034;2023-06-26T05:27:06;100414.44;;;21.66;72.82
57894;BME280;43710;47.460;19.034;2023-06-26T05:30:09;100417.44;;;21.96;71.83
57894;BME280;43710;47.460;19.034;2023-06-26T05:33:12;100417.03;;;22.14;72.15
57894;BME280;43710;47.460;19.034;2023-06-26T05:36:18;100416.25;;;22.29;69.07
57894;BME280;43710;47.460;19.034;2023-06-26T05:39:20;100419.31;;;22.47;71.08
57894;BME280;43710;47.460;19.034;2023-06-26T05:42:23;100416.78;;;22.58;66.30
57894;BME280;43710;47.460;19.034;2023-06-26T05:45:26;100417.44;;;22.70;66.88
57894;BME280;43710;47.460;19.034;2023-06-26T05:48:30;100413.31;;;22.80;61.28
57894;BME280;43710;47.460;19.034;2023-06-26T05:51:32;100415.47;;;22.90;61.31
57894;BME280;43710;47.460;19.034;2023-06-26T05:54:35;100415.63;;;23.20;61.17
57894;BME280;43710;47.460;19.034;2023-06-26T05:57:38;100413.84;;;23.28;60.87
57894;BME280;43710;47.460;19.034;2023-06-26T06:00:43;100415.56;;;23.40;59.31
57894;BME280;43710;47.460;19.034;2023-06-26T06:03:45;100407.38;;;23.40;58.76
57894;BME280;43710;47.460;19.034;2023-06-26T06:06:49;100415.06;;;23.57;63.36
57894;BME280;43710;47.460;19.034;2023-06-26T06:09:51;100411.16;;;23.81;57.97
57894;BME280;43710;47.460;19.034;2023-06-26T06:12:54;100414.09;;;23.96;58.66
57894;BME280;43710;47.460;19.034;2023-06-26T06:15:57;100412.72;;;24.09;58.07
57894;BME280;43710;47.460;19.034;2023-06-26T06:18:59;100411.25;;;24.15;55.64
57894;BME280;43710;47.460;19.034;2023-06-26T06:22:02;100410.16;;;24.23;57.68
57894;BME280;43710;47.460;19.034;2023-06-26T06:25:04;100409.38;;;24.23;55.13
57894;BME280;43710;47.460;19.034;2023-06-26T06:28:07;100404.44;;;24.35;55.66
57894;BME280;43710;47.460;19.034;2023-06-26T06:31:09;100414.66;;;24.38;57.58
57894;BME280;43710;47.460;19.034;2023-06-26T06:34:12;100413.59;;;24.47;59.29
57894;BME280;43710;47.460;19.034;2023-06-26T06:37:15;100414.19;;;24.63;56.49
57894;BME280;43710;47.460;19.034;2023-06-26T06:40:17;100416.53;;;24.61;56.98
57894;BME280;43710;47.460;19.034;2023-06-26T06:43:20;100413.91;;;24.72;54.96
57894;BME280;43710;47.460;19.034;2023-06-26T06:46:22;100417.56;;;24.87;55.71
57894;BME280;43710;47.460;19.034;2023-06-26T06:49:25;100420.41;;;24.94;56.94
57894;BME280;43710;47.460;19.034;2023-06-26T06:52:27;100410.34;;;25.08;54.10
57894;BME280;43710;47.460;19.034;2023-06-26T06:55:30;100422.03;;;25.02;54.46
57894;BME280;43710;47.460;19.034;2023-06-26T06:58:33;100412.66;;;25.06;55.72
57894;BME280;43710;47.460;19.034;2023-06-26T07:01:36;100416.34;;;25.18;56.12
57894;BME280;43710;47.460;19.034;2023-06-26T07:04:38;100417.38;;;25.06;54.60
57894;BME280;43710;47.460;19.034;2023-06-26T07:07:41;100413.87;;;25.09;53.94
57894;BME280;43710;47.460;19.034;2023-06-26T07:10:43;100419.69;;;25.00;52.66
57894;BME280;43710;47.460;19.034;2023-06-26T07:13:47;100414.38;;;24.81;51.99
57894;BME280;43710;47.460;19.034;2023-06-26T07:16:49;100410.69;;;25.03;53.21
57894;BME280;43710;47.460;19.034;2023-06-26T07:19:52;100412.38;;;25.12;54.79
57894;BME280;43710;47.460;19.034;2023-06-26T07:22:54;100410.56;;;25.30;54.09
57894;BME280;43710;47.460;19.034;2023-06-26T07:25:56;100411.75;;;25.33;51.20
57894;BME280;43710;47.460;19.034;2023-06-26T07:28:59;100407.94;;;25.44;51.22
57894;BME280;43710;47.460;19.034;2023-06-26T07:32:01;100407.63;;;25.57;52.77
57894;BME280;43710;47.460;19.034;2023-06-26T07:35:04;100411.16;;;25.53;51.81
57894;BME280;43710;47.460;19.034;2023-06-26T07:38:06;100400.59;;;25.63;50.75
57894;BME280;43710;47.460;19.034;2023-06-26T07:45:42;100403.91;;;25.83;49.75
57894;BME280;43710;47.460;19.034;2023-06-26T07:53:40;100407.34;;;25.72;49.13
57894;BME280;43710;47.460;19.034;2023-06-26T07:56:56;100419.19;;;25.80;50.59
57894;BME280;43710;47.460;19.034;2023-06-26T07:59:59;100415.31;;;25.88;47.85
57894;BME280;43710;47.460;19.034;2023-06-26T08:03:01;100412.25;;;25.97;49.32
57894;BME280;43710;47.460;19.034;2023-06-26T08:06:05;100413.84;;;26.09;49.46
57894;BME280;43710;47.460;19.034;2023-06-26T08:09:13;100406.44;;;26.13;48.03
57894;BME280;43710;47.460;19.034;2023-06-26T08:12:17;100414.62;;;26.09;48.94
57894;BME280;43710;47.460;19.034;2023-06-26T08:15:19;100404.41;;;26.02;48.55
57894;BME280;43710;47.460;19.034;2023-06-26T08:18:22;100412.72;;;26.17;49.46
57894;BME280;43710;47.460;19.034;2023-06-26T08:21:24;100408.81;;;26.21;48.85
57894;BME280;43710;47.460;19.034;2023-06-26T08:24:27;100408.44;;;26.19;48.90
57894;BME280;43710;47.460;19.034;2023-06-26T08:27:29;100407.69;;;26.33;46.29
57894;BME280;43710;47.460;19.034;2023-06-26T08:30:32;100408.44;;;26.23;48.00
57894;BME280;43710;47.460;19.034;2023-06-26T08:33:34;100412.78;;;26.31;46.00
57894;BME280;43710;47.460;19.034;2023-06-26T08:36:37;100410.44;;;26.33;49.03
57894;BME280;43710;47.460;19.034;2023-06-26T08:39:39;100408.91;;;26.36;49.44
57894;BME280;43710;47.460;19.034;2023-06-26T08:42:41;100407.78;;;26.51;48.67
57894;BME280;43710;47.460;19.034;2023-06-26T08:45:44;100406.25;;;26.71;48.37
57894;BME280;43710;47.460;19.034;2023-06-26T08:49:25;100402.38;;;26.83;47.53
57894;BME280;43710;47.460;19.034;2023-06-26T08:52:34;100404.34;;;26.83;48.33
57894;BME280;43710;47.460;19.034;2023-06-26T08:55:41;100416.91;;;26.77;47.38
57894;BME280;43710;47.460;19.034;2023-06-26T08:58:44;100410.59;;;26.73;46.73
57894;BME280;43710;47.460;19.034;2023-06-26T09:01:47;100406.22;;;26.54;51.10
57894;BME280;43710;47.460;19.034;2023-06-26T09:04:50;100408.47;;;26.27;47.93
57894;BME280;43710;47.460;19.034;2023-06-26T09:07:53;100400.53;;;26.14;47.25
57894;BME280;43710;47.460;19.034;2023-06-26T09:11:00;100401.66;;;26.02;47.19
57894;BME280;43710;47.460;19.034;2023-06-26T09:14:02;100400.38;;;25.86;47.57
57894;BME280;43710;47.460;19.034;2023-06-26T09:17:07;100404.25;;;25.77;46.46
57894;BME280;43710;47.460;19.034;2023-06-26T09:20:10;100403.03;;;25.71;48.20
57894;BME280;43710;47.460;19.034;2023-06-26T09:23:14;100401.38;;;25.60;49.33
57894;BME280;43710;47.460;19.034;2023-06-26T09:26:16;100404.13;;;25.60;49.90
57894;BME280;43710;47.460;19.034;2023-06-26T09:29:19;100398.66;;;25.60;48.00
57894;BME280;43710;47.460;19.034;2023-06-26T09:32:24;100399.00;;;25.54;50.32
57894;BME280;43710;47.460;19.034;2023-06-26T09:35:27;100391.69;;;25.76;50.40
57894;BME280;43710;47.460;19.034;2023-06-26T09:38:30;100399.59;;;25.82;48.36
57894;BME280;43710;47.460;19.034;2023-06-26T09:41:32;100396.84;;;25.85;48.21
57894;BME280;43710;47.460;19.034;2023-06-26T09:44:35;100393.03;;;26.00;48.80
57894;BME280;43710;47.460;19.034;2023-06-26T09:47:37;100389.91;;;26.06;46.95
57894;BME280;43710;47.460;19.034;2023-06-26T09:50:41;100390.38;;;26.25;46.05
57894;BME280;43710;47.460;19.034;2023-06-26T09:53:54;100377.91;;;26.42;46.01
57894;BME280;43710;47.460;19.034;2023-06-26T09:57:09;100377.97;;;26.57;46.74
57894;BME280;43710;47.460;19.034;2023-06-26T10:00:13;100387.41;;;26.63;48.79
57894;BME280;43710;47.460;19.034;2023-06-26T10:03:16;100380.72;;;26.60;46.55
57894;BME280;43710;47.460;19.034;2023-06-26T10:06:23;100381.56;;;26.82;52.00
57894;BME280;43710;47.460;19.034;2023-06-26T10:09:27;100375.59;;;26.59;45.33
57894;BME280;43710;47.460;19.034;2023-06-26T10:12:30;100374.81;;;26.58;47.58
57894;BME280;43710;47.460;19.034;2023-06-26T10:15:33;100372.87;;;26.62;46.65
57894;BME280;43710;47.460;19.034;2023-06-26T10:18:38;100369.31;;;26.65;48.03
57894;BME280;43710;47.460;19.034;2023-06-26T10:21:41;100367.78;;;26.75;49.85
57894;BME280;43710;47.460;19.034;2023-06-26T10:24:45;100365.06;;;26.82;47.97
57894;BME280;43710;47.460;19.034;2023-06-26T10:28:00;100365.00;;;26.64;46.08
57894;BME280;43710;47.460;19.034;2023-06-26T10:31:04;100359.06;;;26.48;47.06
57894;BME280;43710;47.460;19.034;2023-06-26T10:34:09;100360.59;;;26.38;48.91
57894;BME280;43710;47.460;19.034;2023-06-26T10:37:12;100356.25;;;26.30;48.24
57894;BME280;43710;47.460;19.034;2023-06-26T10:40:21;100362.19;;;26.43;48.19
57894;BME280;43710;47.460;19.034;2023-06-26T10:43:29;100355.09;;;26.35;46.02
57894;BME280;43710;47.460;19.034;2023-06-26T10:47:08;100350.41;;;26.42;48.78
57894;BME280;43710;47.460;19.034;2023-06-26T10:50:26;100351.25;;;26.64;46.88
57894;BME280;43710;47.460;19.034;2023-06-26T10:53:29;100355.63;;;26.80;47.62
57894;BME280;43710;47.460;19.034;2023-06-26T10:57:03;100358.72;;;26.60;46.44
57894;BME280;43710;47.460;19.034;2023-06-26T11:00:15;100360.69;;;26.56;49.95
57894;BME280;43710;47.460;19.034;2023-06-26T11:03:29;100351.16;;;26.32;47.23
57894;BME280;43710;47.460;19.034;2023-06-26T11:06:38;100366.00;;;26.13;47.85
57894;BME280;43710;47.460;19.034;2023-06-26T11:09:54;100368.34;;;26.11;49.47
57894;BME280;43710;47.460;19.034;2023-06-26T11:12:57;100365.19;;;26.09;47.92
57894;BME280;43710;47.460;19.034;2023-06-26T11:16:01;100364.41;;;26.09;48.67
57894;BME280;43710;47.460;19.034;2023-06-26T11:19:04;100357.75;;;26.06;47.63
57894;BME280;43710;47.460;19.034;2023-06-26T11:22:08;100358.13;;;26.08;48.36
57894;BME280;43710;47.460;19.034;2023-06-26T11:25:10;100349.13;;;26.18;48.00
57894;BME280;43710;47.460;19.034;2023-06-26T11:28:13;100344.09;;;26.31;47.81
57894;BME280;43710;47.460;19.034;2023-06-26T11:34:33;100345.75;;;26.68;47.55
57894;BME280;43710;47.460;19.034;2023-06-26T11:37:37;100341.50;;;27.03;46.60
57894;BME280;43710;47.460;19.034;2023-06-26T11:40:39;100338.75;;;26.99;47.91
57894;BME280;43710;47.460;19.034;2023-06-26T11:43:45;100322.22;;;26.99;47.48
57894;BME280;43710;47.460;19.034;2023-06-26T11:46:47;100337.16;;;26.94;46.61
57894;BME280;43710;47.460;19.034;2023-06-26T11:49:53;100335.19;;;26.81;46.51
57894;BME280;43710;47.460;19.034;2023-06-26T11:52:57;100339.09;;;26.69;45.94
57894;BME280;43710;47.460;19.034;2023-06-26T11:56:07;100336.72;;;26.64;45.95
57894;BME280;43710;47.460;19.034;2023-06-26T11:59:12;100337.09;;;26.55;46.49
57894;BME280;43710;47.460;19.034;2023-06-26T12:02:16;100339.06;;;26.58;46.53
57894;BME280;43710;47.460;19.034;2023-06-26T12:05:18;100326.50;;;26.50;46.99
57894;BME280;43710;47.460;19.034;2023-06-26T12:08:22;100328.81;;;26.44;47.20
57894;BME280;43710;47.460;19.034;2023-06-26T12:11:25;100325.31;;;26.47;46.77
57894;BME280;43710;47.460;19.034;2023-06-26T12:14:30;100330.44;;;26.60;46.61
57894;BME280;43710;47.460;19.034;2023-06-26T12:17:33;100328.50;;;26.78;46.60
57894;BME280;43710;47.460;19.034;2023-06-26T12:20:39;100321.84;;;26.86;46.29
57894;BME280;43710;47.460;19.034;2023-06-26T12:23:42;100326.56;;;26.89;44.86
57894;BME280;43710;47.460;19.034;2023-06-26T12:26:49;100333.22;;;27.10;45.00
57894;BME280;43710;47.460;19.034;2023-06-26T12:29:53;100326.16;;;27.09;44.10
57894;BME280;43710;47.460;19.034;2023-06-26T12:32:56;100321.84;;;27.15;42.95
57894;BME280;43710;47.460;19.034;2023-06-26T12:35:58;100310.84;;;27.15;45.18
57894;BME280;43710;47.460;19.034;2023-06-26T12:39:01;100312.00;;;27.17;44.90
57894;BME280;43710;47.460;19.034;2023-06-26T12:42:03;100321.44;;;27.20;44.66
57894;BME280;43710;47.460;19.034;2023-06-26T12:45:12;100321.03;;;27.04;44.34
57894;BME280;43710;47.460;19.034;2023-06-26T12:48:54;100315.97;;;27.13;45.96
57894;BME280;43710;47.460;19.034;2023-06-26T12:51:56;100318.31;;;27.14;45.11
57894;BME280;43710;47.460;19.034;2023-06-26T12:54:59;100313.56;;;27.11;45.50
57894;BME280;43710;47.460;19.034;2023-06-26T12:58:01;100306.50;;;27.28;44.40
57894;BME280;43710;47.460;19.034;2023-06-26T13:01:06;100310.44;;;27.31;44.05
57894;BME280;43710;47.460;19.034;2023-06-26T13:04:17;100305.72;;;27.24;45.12
57894;BME280;43710;47.460;19.034;2023-06-26T13:07:20;100299.41;;;27.34;46.37
57894;BME280;43710;47.460;19.034;2023-06-26T13:10:22;100298.59;;;27.41;45.08
57894;BME280;43710;47.460;19.034;2023-06-26T13:13:24;100295.03;;;27.55;45.46
57894;BME280;43710;47.460;19.034;2023-06-26T13:16:27;100296.56;;;27.67;45.55
57894;BME280;43710;47.460;19.034;2023-06-26T13:19:32;100298.13;;;27.71;45.46
57894;BME280;43710;47.460;19.034;2023-06-26T13:22:34;100298.53;;;27.73;45.32
57894;BME280;43710;47.460;19.034;2023-06-26T13:25:37;100300.88;;;27.82;45.09
57894;BME280;43710;47.460;19.034;2023-06-26T13:28:39;100298.53;;;27.80;43.95
57894;BME280;43710;47.460;19.034;2023-06-26T13:31:44;100289.88;;;27.78;45.07
57894;BME280;43710;47.460;19.034;2023-06-26T13:34:46;100293.81;;;27.77;44.95
57894;BME280;43710;47.460;19.034;2023-06-26T13:37:50;100284.37;;;27.82;44.71
57894;BME280;43710;47.460;19.034;2023-06-26T13:40:53;100278.78;;;27.93;45.66
57894;BME280;43710;47.460;19.034;2023-06-26T13:43:56;100278.03;;;27.92;44.74
57894;BME280;43710;47.460;19.034;2023-06-26T13:47:17;100284.37;;;27.82;43.24
57894;BME280;43710;47.460;19.034;2023-06-26T13:50:19;100280.06;;;27.63;43.36
57894;BME280;43710;47.460;19.034;2023-06-26T13:53:22;100284.03;;;27.58;43.17
57894;BME280;43710;47.460;19.034;2023-06-26T13:56:24;100276.19;;;27.43;42.30
57894;BME280;43710;47.460;19.034;2023-06-26T13:59:27;100270.25;;;27.55;42.54
57894;BME280;43710;47.460;19.034;2023-06-26T14:02:30;100274.63;;;27.41;43.62
57894;BME280;43710;47.460;19.034;2023-06-26T14:05:33;100275.41;;;27.35;44.22
57894;BME280;43710;47.460;19.034;2023-06-26T14:08:36;100275.06;;;27.29;46.18
57894;BME280;43710;47.460;19.034;2023-06-26T14:11:38;100277.03;;;27.29;45.88
57894;BME280;43710;47.460;19.034;2023-06-26T14:14:41;100282.53;;;27.25;47.03
57894;BME280;43710;47.460;19.034;2023-06-26T14:17:44;100278.59;;;27.26;45.70
57894;BME280;43710;47.460;19.034;2023-06-26T14:20:46;100277.81;;;27.26;44.55
57894;BME280;43710;47.460;19.034;2023-06-26T14:23:49;100272.69;;;27.21;46.61
57894;BME280;43710;47.460;19.034;2023-06-26T14:26:51;100272.34;;;27.19;45.13
57894;BME280;43710;47.460;19.034;2023-06-26T14:29:54;100270.72;;;27.10;46.40
57894;BME280;43710;47.460;19.034;2023-06-26T14:32:57;100268.38;;;27.09;46.49
57894;BME280;43710;47.460;19.034;2023-06-26T14:35:59;100269.19;;;27.13;45.34
57894;BME280;43710;47.460;19.034;2023-06-26T14:39:02;100265.62;;;27.12;47.60
57894;BME280;43710;47.460;19.034;2023-06-26T14:42:05;100266.41;;;27.27;44.84
57894;BME280;43710;47.460;19.034;2023-06-26T14:45:08;100261.69;;;27.28;45.44
57894;BME280;43710;47.460;19.034;2023-06-26T14:48:11;100266.81;;;27.26;45.20
57894;BME280;43710;47.460;19.034;2023-06-26T14:51:13;100268.75;;;27.32;44.40
57894;BME280;43710;47.460;19.034;2023-06-26T14:54:16;100256.94;;;27.43;44.51
57894;BME280;43710;47.460;19.034;2023-06-26T14:57:18;100256.56;;;27.30;45.25
57894;BME280;43710;47.460;19.034;2023-06-26T15:00:21;100270.34;;;27.23;45.23
57894;BME280;43710;47.460;19.034;2023-06-26T15:03:23;100263.25;;;27.18;46.32
